Ostrander, Ohio
Current Conditions -  °F | °C
As of 11:16 AM on Thursday 30 Oct 2014 (Local Time) from KDLZ Reporting Station
Clear Clear  
Wind Chill: 44°   Ceiling: Unl
Heat Index: 46°   Visibility: 10mi
Dew Point: 36°   Wind: 6mph
Humidity: 66%   Direction: 310°NW
Pressure: 30.16"   Gusts: NA
Location:  40.27°N, 83.21°W
Report Text: KDLZ 301516Z AUTO 31005KT 10SM CLR 08/02 A3016 RMK AO2
Loading
Personal Weather Stations






























Interactive Weather Map
Tropical Storm Tracking
New forecast layout! Learn more

10-Day Weather Forecast

Advertisements
Track Severe Weather on mobile